Weather forecast for Bozoy (Бозой)

Russia, 588 m
N53.011, E104.880


Sounding

Red line — air temperature ˚C.
Blue line — thermal bubble temperature ˚C.
Green line — dew point temperature ˚C.
Wind speed is in meters per second.

Table forecast

GFS 0.25˚ model

temp. wind gust humid. clouds prec. press. hpbl
Tue17 00:00 13 269.0 w 2 2 54 100 0.0 1009 11
03:00 12 290.0 wnw 2 2 55 100 0.0 1009 12
06:00 13 305.0 nw 5 11 62 100 0.1 1010 505
09:00 14 308.0 nw 5 8 68 90 0.2 1011 752
12:00 18 312.0 nw 6 8 47 26 0.9 1009 1820
15:00 18 324.0 nw 5 8 43 90 0.9 1010 2028
18:00 20 302.0 wnw 7 9 29 8 0.0 1009 2659
21:00 16 302.0 wnw 4 7 48 5 0.0 1010 175
 
Wed18 00:00 12 300.0 wnw 2 2 61 5 0.0 1013 11
03:00 11 292.0 wnw 1 1 65 19 0.0 1013 10
06:00 9 170.0 s 0 0 71 5 0.0 1014 10
09:00 14 221.0 sw 1 1 56 100 0.0 1015 180
12:00 20 272.0 w 3 4 38 12 0.0 1013 1940
15:00 23 296.0 wnw 3 4 29 74 0.0 1012 2722
18:00 23 1.0 n 2 3 27 59 0.0 1011 2649
21:00 20 324.0 nw 1 1 40 69 0.0 1011 23
 
Thu19 00:00 14 74.0 ene 2 2 52 7 0.0 1013 10
03:00 12 91.0 e 1 1 57 5 0.0 1013 10
06:00 11 90.0 e 1 1 62 6 0.0 1014 10
09:00 17 185.0 s 1 1 47 12 0.0 1013 170
12:00 23 254.0 wsw 4 5 33 10 0.0 1012 1118
15:00 26 283.0 wnw 5 7 25 100 0.0 1010 3454
18:00 25 295.0 wnw 6 7 27 100 0.0 1010 2642
21:00 19 66.0 ene 2 2 54 100 0.0 1011 31
 
Fri20 00:00 16 341.0 nnw 1 1 59 89 0.0 1011 11
03:00 14 36.0 ne 1 1 64 100 0.0 1011 11
06:00 13 44.0 ne 2 2 66 100 0.0 1010 10
09:00 18 88.0 e 1 1 53 100 0.1 1010 192
12:00 24 155.0 sse 1 1 38 100 0.0 1009 788
15:00 27 202.0 ssw 3 4 29 86 0.0 1008 2220
18:00 26 334.0 nnw 2 3 30 67 0.1 1007 1108
21:00 23 326.0 nw 3 6 40 68 0.1 1007 95
 
Sat21 00:00 16 39.0 ne 2 2 73 26 1.2 1011 26
03:00 15 348.0 nnw 1 1 75 100 1.3 1011 15
06:00 13 332.0 nnw 1 1 86 100 0.3 1011 11
09:00 16 264.0 w 1 1 71 100 0.4 1012 194
12:00 18 203.0 ssw 1 1 48 100 0.0 1012 889
15:00 22 222.0 sw 3 4 36 100 0.0 1010 1626
18:00 24 289.0 wnw 4 5 32 10 0.0 1007 2300
21:00 18 108.0 ese 4 6 57 5 0.0 1009 140
 

0.012 s